Time;durP1;ratioP1;P1;durP2;ratioP2;P2;SDS_P1;SDS_P2;PMS_P1;PMS_P2;Temp;Humidity;BMP_temperature;BMP_pressure;BME280_temperature;BME280_humidity;BME280_pressure;Samples;Min_cycle;Max_cycle;Signal;HPM_P1;HPM_P2
2022/07/10 00:02:33;;;;;;;3.80;1.10;;;;;;;12.43;100.00;98985.41;15287648;19;20014;-75
2022/07/10 00:07:38;;;;;;;4.53;0.93;;;;;;;12.38;100.00;98982.38;15274947;19;20022;-75
2022/07/10 00:12:43;;;;;;;3.27;0.90;;;;;;;12.30;100.00;98980.44;15284999;19;20014;31
2022/07/10 00:17:51;;;;;;;3.97;0.90;;;;;;;12.31;100.00;98982.16;15275362;19;20070;-59
2022/07/10 00:22:56;;;;;;;3.97;0.93;;;;;;;12.38;100.00;98990.47;15274946;19;20019;-62
2022/07/10 00:28:06;;;;;;;2.47;0.82;;;;;;;12.41;100.00;98987.41;15271120;19;20038;-56
2022/07/10 00:33:14;;;;;;;3.88;0.90;;;;;;;12.31;100.00;98999.19;15268342;19;20015;-57
2022/07/10 00:38:19;;;;;;;6.63;1.13;;;;;;;12.36;100.00;99000.56;15268656;19;20689;-58
2022/07/10 00:43:24;;;;;;;4.68;1.00;;;;;;;12.33;100.00;98996.34;15273023;19;20007;-57
2022/07/10 00:48:32;;;;;;;5.00;1.00;;;;;;;12.25;100.00;98991.72;15266666;19;20439;-59
2022/07/10 00:53:37;;;;;;;3.30;0.88;;;;;;;12.29;100.00;98984.16;15273380;19;20020;-56
2022/07/10 00:58:42;;;;;;;3.50;0.90;;;;;;;12.19;100.00;98997.75;15273771;19;20015;-58
2022/07/10 01:03:50;;;;;;;3.92;0.80;;;;;;;12.23;100.00;98984.81;15284778;19;20424;-57
2022/07/10 01:08:56;;;;;;;3.03;0.80;;;;;;;12.20;100.00;98975.13;15287496;19;20022;-57
2022/07/10 01:14:01;;;;;;;5.15;1.40;;;;;;;12.15;100.00;98983.72;15282403;19;20022;-56
2022/07/10 01:19:09;;;;;;;4.90;0.95;;;;;;;12.08;100.00;98974.56;15277528;19;20022;-57
2022/07/10 01:24:16;;;;;;;3.60;0.82;;;;;;;12.04;100.00;98975.03;15285846;19;20015;-57
2022/07/10 01:29:24;;;;;;;3.00;0.75;;;;;;;11.99;100.00;98973.63;15285879;19;20038;-55
2022/07/10 01:34:29;;;;;;;4.18;0.88;;;;;;;11.91;100.00;98970.84;15286670;19;20499;-56
2022/07/10 01:39:37;;;;;;;4.45;1.00;;;;;;;11.90;100.00;98974.56;15284730;19;20026;-57
2022/07/10 01:44:42;;;;;;;2.22;0.70;;;;;;;11.89;100.00;98978.25;15279719;19;20583;-56
2022/07/10 01:49:47;;;;;;;2.53;0.80;;;;;;;11.96;100.00;98957.72;15277316;19;20007;-58
2022/07/10 01:54:55;;;;;;;2.15;0.85;;;;;;;11.96;100.00;98957.72;15285112;19;20411;-56
2022/07/10 02:00:00;;;;;;;6.97;1.10;;;;;;;11.83;100.00;98968.06;15283322;19;20570;-54
2022/07/10 02:05:05;;;;;;;7.57;1.15;;;;;;;11.74;100.00;98958.22;15278865;19;20038;-56
2022/07/10 02:10:13;;;;;;;8.25;1.27;;;;;;;11.62;100.00;98963.84;15280718;19;20014;-54
2022/07/10 02:15:18;;;;;;;6.82;1.20;;;;;;;11.44;100.00;98963.00;15274765;19;20023;-58
2022/07/10 02:20:23;;;;;;;2.88;0.80;;;;;;;11.32;100.00;98955.13;15279992;19;20042;-54
2022/07/10 02:25:31;;;;;;;3.30;1.00;;;;;;;11.25;100.00;98949.50;15273288;19;20038;-56
2022/07/10 02:30:36;;;;;;;4.18;0.82;;;;;;;11.20;100.00;98945.56;15280929;19;20038;-53
2022/07/10 02:35:42;;;;;;;5.18;1.10;;;;;;;11.23;100.00;98940.72;15281772;19;20596;-55
2022/07/10 02:40:49;;;;;;;4.65;0.80;;;;;;;11.22;100.00;98932.78;15280691;19;20041;-57
2022/07/10 02:45:54;;;;;;;5.32;0.80;;;;;;;11.31;100.00;98922.91;15277728;19;20018;-56
2022/07/10 02:51:00;;;;;;;5.25;0.95;;;;;;;11.35;100.00;98927.84;15269705;19;20018;-54
2022/07/10 02:56:09;;;;;;;5.43;0.90;;;;;;;11.40;100.00;98928.22;15274096;19;20018;-56
2022/07/10 03:01:15;;;;;;;5.15;1.00;;;;;;;11.52;100.00;98922.59;15277104;19;20014;-55
2022/07/10 03:06:20;;;;;;;5.18;1.10;;;;;;;11.51;100.00;98931.69;15258994;19;20018;-58
2022/07/10 03:11:28;;;;;;;4.18;1.02;;;;;;;11.52;100.00;98933.41;15273783;19;20021;-55
2022/07/10 03:16:34;;;;;;;4.18;0.90;;;;;;;11.50;100.00;98928.16;15278614;19;20018;-59
2022/07/10 03:21:41;;;;;;;4.85;0.98;;;;;;;11.50;100.00;98925.47;15272910;19;20018;-58
2022/07/10 03:26:48;;;;;;;3.25;1.00;;;;;;;11.48;100.00;98921.22;15269911;19;20022;-57
2022/07/10 03:31:55;;;;;;;4.75;1.00;;;;;;;11.45;100.00;98916.16;15279118;19;21030;-60
2022/07/10 03:37:00;;;;;;;3.63;0.82;;;;;;;11.40;100.00;98920.13;15279066;19;20020;-58
2022/07/10 03:42:09;;;;;;;3.45;1.10;;;;;;;11.40;100.00;98909.34;15279124;19;20014;-56
2022/07/10 03:47:15;;;;;;;5.65;1.00;;;;;;;11.40;100.00;98914.75;15276234;19;20085;-60
2022/07/10 03:52:21;;;;;;;5.05;0.98;;;;;;;11.39;100.00;98898.72;15272876;19;20034;-56
2022/07/10 04:02:46;;;;;;;4.05;0.93;;;;;;;11.38;100.00;98911.34;15270146;19;20015;-54
2022/07/10 04:07:52;;;;;;;5.18;0.80;;;;;;;11.44;100.00;98914.44;15273541;19;20105;-57
2022/07/10 04:13:00;;;;;;;5.82;1.13;;;;;;;11.52;100.00;98911.81;15276929;19;20014;-55
2022/07/10 04:18:05;;;;;;;4.93;0.93;;;;;;;11.54;100.00;98907.94;15273355;19;20081;-56
2022/07/10 04:23:11;;;;;;;4.18;1.00;;;;;;;11.60;100.00;98916.44;15275240;19;20014;-58
2022/07/10 04:28:19;;;;;;;4.25;1.00;;;;;;;11.59;100.00;98903.94;15265271;19;20495;-57
2022/07/10 04:33:24;;;;;;;3.80;0.82;;;;;;;11.64;100.00;98907.88;15267834;19;20010;-52
2022/07/10 04:38:31;;;;;;;3.53;0.85;;;;;;;11.66;100.00;98910.41;15285361;19;20053;-56
2022/07/10 04:43:38;;;;;;;5.13;1.08;;;;;;;11.70;100.00;98907.22;15290634;19;20042;-59
2022/07/10 04:48:43;;;;;;;5.32;0.88;;;;;;;11.80;100.00;98904.44;15283818;19;20011;-57
2022/07/10 04:53:49;;;;;;;3.42;0.98;;;;;;;11.83;100.00;98914.06;15289755;19;20012;-58
2022/07/10 04:58:56;;;;;;;5.72;1.13;;;;;;;11.88;100.00;98917.16;15281821;19;20379;-58
2022/07/10 05:04:01;;;;;;;4.38;0.88;;;;;;;11.96;100.00;98911.81;15280485;19;20045;-55
2022/07/10 05:09:07;;;;;;;3.08;0.85;;;;;;;11.98;100.00;98915.25;15286666;19;20018;-56
2022/07/10 05:14:16;;;;;;;5.28;0.90;;;;;;;12.02;100.00;98916.63;15289513;19;20042;-55
2022/07/10 05:19:22;;;;;;;4.45;0.98;;;;;;;12.09;100.00;98913.28;15286179;19;20035;-57
2022/07/10 05:24:27;;;;;;;5.10;0.95;;;;;;;12.11;100.00;98919.38;15286713;19;20010;-58
2022/07/10 05:29:34;;;;;;;2.95;0.60;;;;;;;12.17;100.00;98913.34;15280154;19;20042;-56
2022/07/10 05:34:39;;;;;;;5.35;0.90;;;;;;;12.18;100.00;98923.97;15286846;19;20439;-56
2022/07/10 05:39:46;;;;;;;4.80;0.90;;;;;;;12.20;100.00;98921.09;15274884;19;20038;-59
2022/07/10 05:44:55;;;;;;;4.07;0.90;;;;;;;12.25;100.00;98929.59;15283011;19;20018;-57
2022/07/10 05:50:02;;;;;;;3.20;0.85;;;;;;;12.22;100.00;98924.50;15279278;19;20384;-57
2022/07/10 05:55:10;;;;;;;3.40;0.90;;;;;;;12.25;100.00;98921.50;15281535;19;20010;-57
2022/07/10 06:00:19;;;;;;;4.38;0.80;;;;;;;12.28;100.00;98929.28;15277647;19;20022;-59
2022/07/10 06:05:24;;;;;;;6.22;0.82;;;;;;;12.24;100.00;98932.44;15274897;19;20014;-57
2022/07/10 06:10:29;;;;;;;3.85;0.80;;;;;;;12.37;100.00;98937.44;15273108;19;20408;-58
2022/07/10 06:15:37;;;;;;;4.88;1.05;;;;;;;12.24;100.00;98935.13;15284226;19;20070;-57
2022/07/10 06:20:42;;;;;;;5.38;0.82;;;;;;;12.28;100.00;98933.81;15281702;19;20042;-57
2022/07/10 06:25:48;;;;;;;4.47;0.88;;;;;;;12.27;100.00;98935.69;15283142;19;20041;-57
2022/07/10 06:31:23;;;;;;;5.68;1.02;;;;;;;12.31;100.00;98923.53;15289206;19;20506;-84
2022/07/10 06:49:14;;;;;;;3.00;0.77;;;;;;;12.69;100.00;98925.06;15287380;19;19995;-84
2022/07/10 07:00:54;;;;;;;4.95;0.93;;;;;;;12.98;100.00;98923.84;15289303;19;20780;-85
2022/07/10 07:12:08;;;;;;;4.05;0.80;;;;;;;13.27;100.00;98928.81;15284362;19;20038;-84
2022/07/10 07:18:21;;;;;;;3.50;0.80;;;;;;;13.25;100.00;98936.25;15287061;19;20019;-85
2022/07/10 07:24:21;;;;;;;3.65;0.70;;;;;;;13.43;100.00;98936.16;15287682;19;20003;-85
2022/07/10 07:29:57;;;;;;;6.78;0.90;;;;;;;13.53;100.00;98920.59;15287465;19;20078;-84
2022/07/10 07:46:52;;;;;;;4.28;0.82;;;;;;;13.37;100.00;98936.75;15291244;19;20011;-85
2022/07/10 07:58:21;;;;;;;6.30;0.90;;;;;;;13.16;100.00;98950.78;15293365;19;20061;-84
2022/07/10 08:03:32;;;;;;;2.63;0.65;;;;;;;12.77;100.00;98962.94;15287865;19;20025;-86
2022/07/10 08:15:41;;;;;;;3.00;0.80;;;;;;;11.83;100.00;98998.63;15292314;19;20094;-86
2022/07/10 08:20:53;;;;;;;2.63;0.75;;;;;;;11.63;100.00;99010.59;15293146;19;20010;-86
2022/07/10 08:26:03;;;;;;;3.25;0.70;;;;;;;11.74;100.00;98996.00;15300887;19;20164;-84
2022/07/10 08:31:19;;;;;;;2.97;0.80;;;;;;;11.95;100.00;98993.81;15291138;19;20090;-84
2022/07/10 09:06:07;;;;;;;2.42;0.50;;;;;;;13.61;100.00;98944.13;15282387;19;20039;-85
2022/07/10 09:11:40;;;;;;;2.35;0.60;;;;;;;13.75;100.00;98945.31;15291146;19;20020;-84
2022/07/10 09:17:12;;;;;;;2.22;0.60;;;;;;;13.82;100.00;98942.75;15288782;19;20105;-85
2022/07/10 09:22:24;;;;;;;2.20;0.60;;;;;;;14.09;100.00;98943.44;15295164;19;20390;-85
2022/07/10 09:45:35;;;;;;;1.63;0.50;;;;;;;14.64;100.00;98915.50;15278346;19;20208;-86
2022/07/10 09:50:57;;;;;;;1.33;0.50;;;;;;;14.83;100.00;98918.00;15246808;19;20018;-88
2022/07/10 09:56:11;;;;;;;2.13;0.60;;;;;;;14.93;100.00;98916.75;15290996;19;20018;-85
2022/07/10 10:01:23;;;;;;;2.45;0.80;;;;;;;15.09;100.00;98913.13;15296515;19;20478;-82
2022/07/10 10:06:33;;;;;;;2.15;0.60;;;;;;;15.21;100.00;98904.56;15293231;19;20653;-84
2022/07/10 10:12:26;;;;;;;2.30;0.90;;;;;;;15.19;100.00;98890.34;15304900;19;20124;-82
2022/07/10 10:30:15;;;;;;;5.18;0.77;;;;;;;15.66;100.00;98911.03;15312250;19;20014;-56
2022/07/10 10:35:46;;;;;;;2.10;0.70;;;;;;;15.58;100.00;98905.69;15268371;19;20482;-53
2022/07/10 10:40:52;;;;;;;3.85;0.82;;;;;;;15.60;100.00;98903.59;15279749;19;20018;-57
2022/07/10 10:45:59;;;;;;;2.20;0.73;;;;;;;15.72;100.00;98913.00;15277061;19;20014;-55
2022/07/10 10:51:05;;;;;;;1.70;0.63;;;;;;;15.68;100.00;98898.13;15283746;19;20030;-58
2022/07/10 10:56:35;;;;;;;3.22;0.68;;;;;;;15.86;100.00;98907.84;15276164;19;20018;-57
2022/07/10 11:01:43;;;;;;;4.55;0.57;;;;;;;15.86;100.00;98900.53;15270191;19;20050;-57
2022/07/10 11:06:51;;;;;;;3.03;0.70;;;;;;;15.90;100.00;98901.00;15274336;19;20014;-58
2022/07/10 11:12:04;;;;;;;3.92;0.80;;;;;;;15.84;100.00;98899.88;15279520;19;20045;-58
2022/07/10 11:17:13;;;;;;;2.05;0.80;;;;;;;15.80;100.00;98900.41;15278649;19;20014;-54
2022/07/10 11:22:45;;;;;;;2.38;0.75;;;;;;;16.19;100.00;98891.19;15278603;19;20026;-56
2022/07/10 11:28:11;;;;;;;1.77;0.80;;;;;;;16.27;100.00;98887.56;15273590;19;20031;-56
2022/07/10 11:33:21;;;;;;;2.92;0.70;;;;;;;16.21;100.00;98891.03;15270649;19;20376;-59
2022/07/10 11:38:28;;;;;;;1.85;0.65;;;;;;;16.29;100.00;98880.06;15275192;19;20014;-59
2022/07/10 11:43:34;;;;;;;2.50;0.70;;;;;;;16.84;100.00;98872.41;15276616;19;20011;-58
2022/07/10 11:48:47;;;;;;;2.88;0.80;;;;;;;16.87;100.00;98866.59;15276869;19;20014;-56
2022/07/10 11:54:01;;;;;;;2.70;0.80;;;;;;;16.69;100.00;98868.88;15271914;19;20051;-55
2022/07/10 11:59:08;;;;;;;2.03;0.70;;;;;;;16.74;100.00;98856.38;15271741;19;20011;-56
2022/07/10 12:04:18;;;;;;;1.98;0.80;;;;;;;16.59;100.00;98863.72;15270554;19;20034;-57
2022/07/10 12:09:25;;;;;;;4.10;0.77;;;;;;;16.67;100.00;98868.22;15274514;19;20014;-56
2022/07/10 12:14:30;;;;;;;2.40;0.82;;;;;;;17.01;99.38;98864.91;15275445;19;20038;-56
2022/07/10 12:19:42;;;;;;;2.08;0.70;;;;;;;17.14;99.07;98856.03;15276250;19;20057;-55
2022/07/10 12:24:47;;;;;;;;;;;;;;;17.25;92.30;98857.41;15277655;19;20356;-57
2022/07/10 12:30:03;;;;;;;3.75;0.80;;;;;;;16.84;90.23;98861.53;15268330;19;19914;-57
2022/07/10 12:35:14;;;;;;;2.00;0.70;;;;;;;16.93;96.44;98862.28;15266256;19;20011;-58
2022/07/10 12:40:35;;;;;;;3.67;0.95;;;;;;;17.17;97.43;98863.81;15274524;19;20487;-57
2022/07/10 12:45:41;;;;;;;4.50;0.93;;;;;;;17.21;99.93;98866.97;15270567;19;20006;-56
2022/07/10 12:50:49;;;;;;;2.38;0.68;;;;;;;17.29;94.02;98860.56;15270690;19;20049;-56
2022/07/10 12:55:55;;;;;;;2.08;0.80;;;;;;;17.50;92.53;98855.13;15269972;19;20006;-56
2022/07/10 13:01:01;;;;;;;2.30;0.73;;;;;;;17.95;95.64;98846.69;15284235;19;20018;-57
2022/07/10 13:06:29;;;;;;;3.20;0.85;;;;;;;17.97;76.43;98847.38;15281575;19;20018;-56
2022/07/10 13:11:34;;;;;;;2.80;0.85;;;;;;;17.82;88.51;98849.31;15288677;19;20049;-52
2022/07/10 13:16:40;;;;;;;3.28;0.82;;;;;;;18.18;82.71;98849.16;15287579;19;20038;-57
2022/07/10 13:21:48;;;;;;;2.10;0.75;;;;;;;18.25;77.41;98840.19;15289300;19;20050;-54
2022/07/10 13:26:56;;;;;;;2.78;0.80;;;;;;;17.96;78.83;98832.00;15287681;19;20526;-56
2022/07/10 13:32:03;;;;;;;2.83;0.80;;;;;;;18.00;80.59;98832.47;15283982;19;20033;-54
2022/07/10 13:37:13;;;;;;;3.40;0.80;;;;;;;18.05;72.65;98829.97;15282276;19;20013;-57
2022/07/10 13:42:18;;;;;;;4.22;0.80;;;;;;;18.17;74.35;98830.28;15279977;19;20014;-57
2022/07/10 13:47:23;;;;;;;1.45;0.60;;;;;;;18.38;78.64;98821.19;15281127;19;20011;-56
2022/07/10 13:52:31;;;;;;;1.95;0.70;;;;;;;18.92;68.50;98822.22;15283244;19;20336;-59
2022/07/10 13:57:37;;;;;;;1.92;0.77;;;;;;;19.46;63.14;98829.69;15284244;19;20041;-58
2022/07/10 14:02:42;;;;;;;3.60;0.80;;;;;;;19.66;66.11;98829.69;15285842;19;20010;-57
2022/07/10 14:07:50;;;;;;;2.88;0.80;;;;;;;19.13;64.60;98825.00;15275556;19;20007;-57
2022/07/10 14:12:55;;;;;;;1.10;0.52;;;;;;;18.98;64.63;98828.78;15276360;19;20474;-57
2022/07/10 14:18:00;;;;;;;3.45;0.90;;;;;;;19.24;64.17;98821.66;15282722;19;20038;-58
2022/07/10 14:23:08;;;;;;;3.72;0.93;;;;;;;19.21;61.22;98819.38;15283584;19;20027;-58
2022/07/10 14:28:13;;;;;;;3.78;0.70;;;;;;;18.86;64.84;98824.94;15280367;19;20010;-56
2022/07/10 14:33:19;;;;;;;2.92;0.65;;;;;;;19.00;67.19;98821.19;15282028;19;20495;-56
2022/07/10 14:38:26;;;;;;;2.47;0.80;;;;;;;18.81;65.40;98817.38;15278646;19;20053;-54
2022/07/10 14:43:33;;;;;;;2.10;0.73;;;;;;;18.89;66.94;98819.03;15273836;19;20370;-53
2022/07/10 14:48:38;;;;;;;3.08;0.68;;;;;;;19.11;63.24;98805.28;15279909;19;20014;-53
2022/07/10 14:53:47;;;;;;;3.72;0.80;;;;;;;19.05;65.16;98810.50;15276745;19;20014;-54
2022/07/10 14:58:53;;;;;;;2.30;0.77;;;;;;;19.12;64.74;98812.41;15280349;19;20493;-56
2022/07/10 15:04:18;;;;;;;1.55;0.68;;;;;;;19.00;66.55;98813.00;15278634;19;20511;-51
2022/07/10 15:09:26;;;;;;;3.83;0.70;;;;;;;18.81;69.60;98802.84;15276430;19;20006;-57
2022/07/10 15:14:31;;;;;;;3.22;0.80;;;;;;;18.81;68.46;98800.13;15277445;19;20046;-52
2022/07/10 15:19:36;;;;;;;2.78;0.90;;;;;;;18.71;67.19;98801.38;15271287;19;20034;-53
2022/07/10 15:24:44;;;;;;;2.35;0.80;;;;;;;18.98;64.03;98800.63;15276305;19;20707;-51
2022/07/10 15:29:49;;;;;;;2.17;0.82;;;;;;;19.34;63.96;98805.75;15277775;19;20003;-55
2022/07/10 15:34:55;;;;;;;1.73;0.70;;;;;;;19.25;62.54;98798.75;15276888;19;20038;-55
2022/07/10 15:40:03;;;;;;;2.25;0.60;;;;;;;19.11;64.67;98788.91;15278459;19;20034;-56
2022/07/10 15:45:09;;;;;;;1.35;0.60;;;;;;;19.13;61.30;98781.31;15271896;19;20018;-55
2022/07/10 15:50:18;;;;;;;2.35;0.77;;;;;;;19.12;61.00;98783.22;15273679;19;20010;-53
2022/07/10 15:55:26;;;;;;;2.20;0.60;;;;;;;19.23;60.21;98781.75;15275149;19;20014;-56
2022/07/10 16:00:34;;;;;;;3.65;0.90;;;;;;;19.15;61.93;98784.69;15279566;19;20556;-55
2022/07/10 16:05:39;;;;;;;4.35;0.98;;;;;;;19.30;60.52;98774.41;15272757;19;20078;-54
2022/07/10 16:10:47;;;;;;;6.05;0.90;;;;;;;19.79;59.01;98791.41;15273671;19;20029;-55
2022/07/10 16:16:15;;;;;;;2.60;0.70;;;;;;;19.67;59.12;98783.03;15272142;19;20046;-55
2022/07/10 16:21:20;;;;;;;2.80;0.98;;;;;;;19.75;60.83;98783.84;15263611;19;20399;-51
2022/07/10 16:26:29;;;;;;;3.78;0.90;;;;;;;19.65;61.38;98790.59;15273558;19;20541;-53
2022/07/10 16:31:39;;;;;;;3.72;0.77;;;;;;;19.57;63.26;98804.47;15272253;19;20019;-53
2022/07/10 16:36:46;;;;;;;3.57;0.70;;;;;;;19.68;69.62;98784.72;15287035;19;20009;-55
2022/07/10 16:41:53;;;;;;;3.10;0.75;;;;;;;19.62;76.14;98792.91;15289403;19;20018;-55
2022/07/10 16:46:59;;;;;;;3.92;0.90;;;;;;;19.00;91.28;98790.34;15283813;19;20022;-52
2022/07/10 16:52:06;;;;;;;2.78;0.82;;;;;;;18.47;100.00;98792.66;15275080;19;20010;-53
2022/07/10 16:57:14;;;;;;;4.60;0.82;;;;;;;18.39;100.00;98814.69;15285585;19;20348;-52
2022/07/10 17:02:20;;;;;;;7.47;0.80;;;;;;;17.82;100.00;98802.97;15285028;19;20062;-56
2022/07/10 17:07:25;;;;;;;3.33;0.82;;;;;;;17.75;100.00;98804.81;15284525;19;20018;-55
2022/07/10 17:12:33;;;;;;;1.95;0.55;;;;;;;17.68;100.00;98808.31;15284832;19;20007;-57
2022/07/10 17:17:38;;;;;;;1.58;0.70;;;;;;;17.49;100.00;98818.03;15285230;19;20010;-52
2022/07/10 17:22:45;;;;;;;0.98;0.40;;;;;;;17.32;100.00;98816.63;15280148;19;20107;-56
2022/07/10 17:27:53;;;;;;;1.40;0.50;;;;;;;17.15;100.00;98821.50;15279787;19;20006;-54
2022/07/10 17:32:58;;;;;;;1.15;0.60;;;;;;;16.92;100.00;98815.16;15286465;19;20041;-55
2022/07/10 17:38:10;;;;;;;1.20;0.50;;;;;;;16.79;100.00;98826.75;15280391;19;20006;-50
2022/07/10 17:43:18;;;;;;;1.50;0.47;;;;;;;16.64;100.00;98839.53;15284537;19;20490;-53
2022/07/10 17:48:23;;;;;;;1.77;0.55;;;;;;;16.60;100.00;98830.91;15283147;19;20062;-51
2022/07/10 17:53:31;;;;;;;1.48;0.60;;;;;;;16.66;100.00;98844.75;15276461;19;20639;-52
2022/07/10 17:58:39;;;;;;;2.25;0.50;;;;;;;16.51;100.00;98842.94;15275956;19;20011;-50
2022/07/10 18:03:47;;;;;;;2.38;0.60;;;;;;;16.44;100.00;98831.09;15281682;19;20045;-52
2022/07/10 18:08:57;;;;;;;2.17;0.52;;;;;;;16.60;100.00;98833.63;15281636;19;20034;-55
2022/07/10 18:14:09;;;;;;;1.00;0.50;;;;;;;16.71;100.00;98834.16;15283354;19;20096;-51
2022/07/10 18:19:16;;;;;;;1.75;0.45;;;;;;;16.69;100.00;98837.09;15283975;19;20022;-52
2022/07/10 18:24:23;;;;;;;1.63;0.50;;;;;;;16.26;100.00;98845.09;15276751;19;20811;-51
2022/07/10 18:29:33;;;;;;;1.75;0.40;;;;;;;16.09;100.00;98860.72;15268839;19;20408;-57
2022/07/10 18:34:40;;;;;;;1.05;0.40;;;;;;;15.85;100.00;98851.78;15274119;19;20021;-58
2022/07/10 18:39:47;;;;;;;1.30;0.50;;;;;;;15.68;100.00;98854.66;15282073;19;20006;-51
2022/07/10 18:44:57;;;;;;;1.35;0.40;;;;;;;15.61;100.00;98850.97;15277691;19;20011;-57
2022/07/10 18:50:03;;;;;;;0.60;0.50;;;;;;;15.50;100.00;98859.56;15281233;19;20336;-57
2022/07/10 18:55:11;;;;;;;1.25;0.43;;;;;;;15.31;100.00;98855.44;15277274;19;20077;-57
2022/07/10 19:00:24;;;;;;;0.93;0.50;;;;;;;15.12;100.00;98851.34;15280152;19;20014;-57
2022/07/10 19:05:30;;;;;;;1.30;0.52;;;;;;;14.95;100.00;98865.03;15273261;19;20050;-55
2022/07/10 19:10:35;;;;;;;1.48;0.40;;;;;;;14.84;100.00;98870.88;15280445;19;20041;-56
2022/07/10 19:15:43;;;;;;;0.50;0.28;;;;;;;14.73;100.00;98861.25;15278034;19;20010;-56
2022/07/10 19:20:49;;;;;;;1.73;0.30;;;;;;;14.58;100.00;98861.94;15242923;19;20092;-57
2022/07/10 19:25:54;;;;;;;1.70;0.40;;;;;;;14.41;100.00;98869.31;15275866;19;20023;-56
2022/07/10 19:31:02;;;;;;;1.05;0.30;;;;;;;14.31;100.00;98876.81;15271943;19;20015;-55
2022/07/10 19:36:09;;;;;;;0.98;0.40;;;;;;;14.24;100.00;98881.25;15270434;19;20018;-56
2022/07/10 19:41:14;;;;;;;1.60;0.55;;;;;;;14.10;100.00;98878.22;15280285;19;20022;-55
2022/07/10 19:46:22;;;;;;;1.80;0.30;;;;;;;14.06;100.00;98884.16;15274150;19;20041;-57
2022/07/10 19:51:27;;;;;;;3.20;0.50;;;;;;;13.97;100.00;98886.91;15277460;19;20499;-51
2022/07/10 19:56:33;;;;;;;0.98;0.40;;;;;;;13.92;100.00;98896.56;15277676;19;20686;-58
2022/07/10 20:01:41;;;;;;;1.40;0.50;;;;;;;13.81;100.00;98901.31;15273971;19;20400;-52
2022/07/10 20:06:46;;;;;;;0.90;0.30;;;;;;;13.73;100.00;98895.88;15268853;19;20121;-57
2022/07/10 20:11:51;;;;;;;1.52;0.50;;;;;;;13.65;100.00;98904.00;15276193;19;20489;-57
2022/07/10 20:16:59;;;;;;;0.98;0.50;;;;;;;13.66;100.00;98905.69;15252100;19;20003;-57
2022/07/10 20:22:06;;;;;;;1.55;0.50;;;;;;;13.58;100.00;98908.41;15229486;19;20010;-52
2022/07/10 20:27:11;;;;;;;1.23;0.40;;;;;;;13.56;100.00;98904.03;15275335;19;20009;-51
2022/07/10 20:32:19;;;;;;;1.65;0.40;;;;;;;13.53;100.00;98903.47;15270410;19;20458;-56
2022/07/10 20:42:42;;;;;;;1.10;0.50;;;;;;;13.45;100.00;98909.75;15274907;19;20018;-54
2022/07/10 20:47:49;;;;;;;1.67;0.40;;;;;;;13.37;100.00;98909.69;15274934;19;20328;-55
2022/07/10 20:52:55;;;;;;;1.13;0.45;;;;;;;13.29;100.00;98915.13;15266150;19;20018;-75
2022/07/10 20:58:00;;;;;;;1.85;0.30;;;;;;;13.21;100.00;98930.34;15261948;19;20019;-75
2022/07/10 21:03:08;;;;;;;1.38;0.40;;;;;;;13.18;100.00;98930.66;15261619;19;20011;-75
2022/07/10 21:08:13;;;;;;;1.50;0.40;;;;;;;13.15;100.00;98936.38;15259222;19;20028;-76
2022/07/10 21:13:25;;;;;;;1.63;0.30;;;;;;;13.11;100.00;98940.44;15254640;19;20034;-76
2022/07/10 21:18:33;;;;;;;1.15;0.40;;;;;;;13.13;100.00;98943.81;15275976;19;20090;-76
2022/07/10 21:23:38;;;;;;;2.88;0.30;;;;;;;13.17;100.00;98947.06;15282519;19;20010;-76
2022/07/10 21:28:47;;;;;;;1.42;0.40;;;;;;;13.14;100.00;98945.50;14776938;19;10000018;-77
2022/07/10 21:33:55;;;;;;;2.05;0.52;;;;;;;13.12;100.00;98950.22;15281996;19;20011;-76
2022/07/10 21:39:00;;;;;;;1.50;0.45;;;;;;;13.05;100.00;98960.03;15283314;19;20471;-76
2022/07/10 21:44:07;;;;;;;1.27;0.40;;;;;;;13.06;100.00;98950.91;15278118;19;20344;-76
2022/07/10 21:49:15;;;;;;;1.33;0.40;;;;;;;13.02;100.00;98955.81;15277338;19;20003;-75
2022/07/10 21:54:20;;;;;;;1.63;0.40;;;;;;;13.00;100.00;98965.06;15279715;19;20026;-75
2022/07/10 21:59:24;;;;;;;0.70;0.30;;;;;;;12.97;100.00;98960.84;15277603;19;20022;-75
2022/07/10 22:04:32;;;;;;;1.48;0.40;;;;;;;12.92;100.00;98961.34;15280305;19;20014;-75
2022/07/10 22:09:37;;;;;;;1.38;0.38;;;;;;;12.86;100.00;98963.84;15275757;19;20038;-75
2022/07/10 22:14:42;;;;;;;2.67;0.45;;;;;;;12.83;100.00;98964.16;15276492;19;20018;-75
2022/07/10 22:19:49;;;;;;;0.93;0.47;;;;;;;12.79;100.00;98969.06;15281157;19;20514;-76
2022/07/10 22:24:54;;;;;;;1.80;0.50;;;;;;;12.75;100.00;98965.00;15279753;19;20537;-76
2022/07/10 22:29:59;;;;;;;0.65;0.40;;;;;;;12.73;100.00;98967.84;15277550;19;20027;-75
2022/07/10 22:35:07;;;;;;;1.10;0.40;;;;;;;12.70;100.00;98970.03;15279622;19;20344;-76
2022/07/10 22:40:14;;;;;;;0.70;0.40;;;;;;;12.63;100.00;98970.69;15280206;19;20025;-75
2022/07/10 22:45:19;;;;;;;1.52;0.40;;;;;;;12.60;100.00;98973.72;15277515;19;20336;-76
2022/07/10 22:50:26;;;;;;;1.98;0.50;;;;;;;12.55;100.00;98958.97;15273414;19;20015;-76
2022/07/10 22:55:33;;;;;;;1.63;0.50;;;;;;;12.48;100.00;98964.19;15279145;19;20763;-76
2022/07/10 23:00:40;;;;;;;0.70;0.38;;;;;;;12.43;100.00;98961.09;15279362;19;20356;-76
2022/07/10 23:05:48;;;;;;;1.42;0.50;;;;;;;12.42;100.00;98951.28;15280818;19;20034;-75
2022/07/10 23:10:53;;;;;;;1.15;0.50;;;;;;;12.40;100.00;98962.28;15278892;19;20050;-75
2022/07/10 23:15:59;;;;;;;2.13;0.52;;;;;;;12.33;100.00;98966.63;15283632;19;20014;-75
2022/07/10 23:21:07;;;;;;;0.98;0.43;;;;;;;12.30;100.00;98965.06;15320026;19;20013;-75
2022/07/10 23:26:12;;;;;;;1.50;0.45;;;;;;;12.29;100.00;98966.06;15273065;19;20010;-75
2022/07/10 23:31:17;;;;;;;1.40;0.40;;;;;;;12.27;100.00;98962.72;15272758;19;20026;-75
2022/07/10 23:36:24;;;;;;;1.20;0.50;;;;;;;12.26;100.00;98963.72;15272023;19;20014;-75
2022/07/10 23:41:29;;;;;;;2.03;0.43;;;;;;;12.21;100.00;98957.94;15261677;19;20107;-75
2022/07/10 23:46:35;;;;;;;0.80;0.40;;;;;;;12.18;100.00;98969.03;15259257;19;20380;-75
2022/07/10 23:51:42;;;;;;;1.20;0.40;;;;;;;12.10;100.00;98969.00;15262103;19;20024;-75
2022/07/10 23:56:47;;;;;;;0.50;0.30;;;;;;;12.07;100.00;98967.47;15265600;19;20605;-75
